Time;durP1;ratioP1;P1;durP2;ratioP2;P2;SDS_P1;SDS_P2;PMS_P1;PMS_P2;Temp;Humidity;BMP_temperature;BMP_pressure;BME280_temperature;BME280_humidity;BME280_pressure;Samples;Min_cycle;Max_cycle;Signal;HPM_P1;HPM_P2
2023/08/26 00:01:44;;;;;;;4.63;2.00;;;11.20;99.90;;;;;;5050278;28;20050;-60
2023/08/26 00:04:12;;;;;;;3.47;1.63;;;11.10;99.90;;;;;;5049352;28;20068;-60
2023/08/26 00:06:40;;;;;;;6.53;2.03;;;11.10;99.90;;;;;;5049641;28;20037;-60
2023/08/26 00:09:08;;;;;;;3.90;2.00;;;11.10;99.90;;;;;;5049308;28;20408;-60
2023/08/26 00:11:38;;;;;;;4.68;2.00;;;11.00;99.90;;;;;;5031707;28;20422;-59
2023/08/26 00:14:06;;;;;;;3.47;1.75;;;11.00;99.90;;;;;;5030970;28;20053;-60
2023/08/26 00:16:34;;;;;;;4.72;1.70;;;11.00;99.90;;;;;;5029538;28;20400;-59
2023/08/26 00:19:02;;;;;;;3.47;2.00;;;11.00;99.90;;;;;;5051369;28;20501;-57
2023/08/26 00:21:31;;;;;;;6.03;2.47;;;10.90;99.90;;;;;;5069267;28;20499;-57
2023/08/26 00:23:59;;;;;;;8.70;2.03;;;10.90;99.90;;;;;;5055814;28;20060;-57
2023/08/26 00:26:26;;;;;;;5.28;2.00;;;10.90;99.90;;;;;;5049287;28;20045;-58
2023/08/26 00:28:55;;;;;;;4.22;1.90;;;10.90;99.90;;;;;;5043388;28;20037;-57
2023/08/26 00:31:22;;;;;;;2.40;1.90;;;10.90;99.90;;;;;;5047728;28;20049;-57
2023/08/26 00:33:50;;;;;;;4.25;2.20;;;10.80;99.90;;;;;;5047763;28;20048;-57
2023/08/26 00:36:18;;;;;;;8.05;2.28;;;10.90;99.90;;;;;;5049228;28;20075;-58
2023/08/26 00:38:46;;;;;;;3.28;2.30;;;10.80;99.90;;;;;;5047733;28;20484;-57
2023/08/26 00:41:14;;;;;;;7.97;2.50;;;10.80;99.90;;;;;;5047770;28;20049;-57
2023/08/26 00:43:41;;;;;;;5.40;2.40;;;10.80;99.90;;;;;;5041706;28;20048;-57
2023/08/26 00:46:09;;;;;;;7.13;2.70;;;10.80;99.90;;;;;;5044532;28;20508;-57
2023/08/26 00:48:37;;;;;;;6.00;2.58;;;10.80;99.90;;;;;;5034620;28;20052;-57
2023/08/26 00:51:05;;;;;;;5.18;2.42;;;10.90;99.90;;;;;;5047466;28;20045;-57
2023/08/26 00:53:34;;;;;;;4.88;2.33;;;10.90;99.90;;;;;;5050236;28;20052;-58
2023/08/26 00:56:02;;;;;;;5.20;2.47;;;10.90;99.90;;;;;;5047612;28;20056;-60
2023/08/26 00:58:31;;;;;;;4.85;2.30;;;10.90;99.90;;;;;;5045115;28;20576;-60
2023/08/26 01:01:00;;;;;;;3.83;2.40;;;10.90;99.90;;;;;;5027869;28;20515;-60
2023/08/26 01:03:28;;;;;;;4.47;2.50;;;11.00;99.90;;;;;;5040276;28;20060;-60
2023/08/26 01:05:57;;;;;;;4.45;2.35;;;11.00;99.90;;;;;;5045471;28;20055;-59
2023/08/26 01:08:26;;;;;;;4.18;2.45;;;10.90;99.90;;;;;;5047497;28;20064;-60
2023/08/26 01:11:13;;;;;;;4.68;2.60;;;10.90;99.90;;;;;;5047216;28;20404;-60
2023/08/26 01:13:52;;;;;;;4.95;2.45;;;10.90;99.90;;;;;;5033067;28;20056;-60
2023/08/26 01:16:22;;;;;;;5.43;2.72;;;10.90;99.90;;;;;;5027319;28;20037;-60
2023/08/26 01:18:51;;;;;;;7.70;2.95;;;10.80;99.90;;;;;;5037132;28;20045;-59
2023/08/26 01:21:21;;;;;;;4.00;3.15;;;10.90;99.90;;;;;;5047136;28;20068;-60
2023/08/26 01:23:50;;;;;;;4.95;2.50;;;10.80;99.90;;;;;;5033460;28;20052;-60
2023/08/26 01:26:17;;;;;;;3.47;2.60;;;10.90;99.90;;;;;;5048408;28;20064;-59
2023/08/26 01:28:45;;;;;;;3.45;2.58;;;10.90;99.90;;;;;;5047933;28;20048;-60
2023/08/26 01:31:13;;;;;;;5.40;2.67;;;10.90;99.90;;;;;;5026792;28;20426;-60
2023/08/26 01:34:15;;;;;;;6.40;3.08;;;10.90;99.90;;;;;;5033484;28;20052;-58
2023/08/26 01:36:44;;;;;;;5.18;2.70;;;11.00;99.90;;;;;;5050269;28;20388;-58
2023/08/26 01:39:16;;;;;;;6.18;3.00;;;11.00;99.90;;;;;;5062882;28;20048;-58
2023/08/26 01:41:50;;;;;;;4.85;2.50;;;11.00;99.90;;;;;;5035526;28;20053;-58
2023/08/26 01:44:18;;;;;;;6.63;2.92;;;11.10;99.90;;;;;;5032619;28;20065;-58
2023/08/26 01:46:47;;;;;;;5.88;2.67;;;11.10;99.90;;;;;;5037328;28;20041;-57
2023/08/26 01:49:15;;;;;;;5.60;3.10;;;11.10;99.90;;;;;;5050081;28;20045;-57
2023/08/26 01:51:43;;;;;;;4.72;2.85;;;11.10;99.90;;;;;;5051389;28;20484;-57
2023/08/26 01:54:11;;;;;;;4.45;3.00;;;11.10;99.90;;;;;;5068111;28;20032;-57
2023/08/26 01:56:38;;;;;;;8.85;2.83;;;11.10;99.90;;;;;;5069906;28;20044;-57
2023/08/26 01:59:06;;;;;;;3.50;2.65;;;11.10;99.90;;;;;;5069511;28;20041;-57
2023/08/26 02:01:33;;;;;;;3.28;2.60;;;11.10;99.90;;;;;;5053484;28;20048;-57
2023/08/26 02:04:01;;;;;;;3.70;2.78;;;11.10;99.90;;;;;;5067111;28;20056;-57
2023/08/26 02:06:29;;;;;;;4.80;3.20;;;11.10;99.90;;;;;;5033030;28;20049;-57
2023/08/26 02:08:57;;;;;;;5.15;3.10;;;11.10;99.90;;;;;;5047310;28;20044;-57
2023/08/26 02:11:24;;;;;;;4.85;3.47;;;11.00;99.90;;;;;;5049893;28;20515;-57
2023/08/26 02:13:55;;;;;;;4.78;2.90;;;11.00;99.90;;;;;;5049761;28;20037;-58
2023/08/26 02:16:23;;;;;;;4.82;3.40;;;10.90;99.90;;;;;;5051294;28;20037;-57
2023/08/26 02:18:53;;;;;;;4.63;2.80;;;10.90;99.90;;;;;;5049689;28;20060;-58
2023/08/26 02:21:20;;;;;;;;;;;10.90;99.90;;;;;;5050489;28;20045;-57
2023/08/26 02:23:48;;;;;;;4.25;3.22;;;10.90;99.90;;;;;;5063662;28;19921;-57
2023/08/26 02:26:16;;;;;;;10.68;3.55;;;10.90;99.90;;;;;;5070870;28;20044;-58
2023/08/26 02:28:44;;;;;;;6.20;3.20;;;10.80;99.90;;;;;;5063015;28;20037;-58
2023/08/26 02:31:11;;;;;;;5.32;3.70;;;10.80;99.90;;;;;;5049861;28;20049;-58
2023/08/26 02:33:39;;;;;;;5.25;3.75;;;10.80;99.90;;;;;;5049499;28;20045;-57
2023/08/26 02:36:07;;;;;;;7.90;3.40;;;10.80;99.90;;;;;;5050990;28;20048;-58
2023/08/26 02:38:34;;;;;;;6.22;3.50;;;10.80;99.90;;;;;;5050708;28;20045;-59
2023/08/26 02:41:02;;;;;;;8.70;4.15;;;10.80;99.90;;;;;;5050962;28;20049;-60
2023/08/26 02:43:30;;;;;;;9.38;4.28;;;10.80;99.90;;;;;;5049512;28;20389;-60
2023/08/26 02:45:58;;;;;;;9.00;4.80;;;10.90;99.90;;;;;;5049614;28;20041;-59
2023/08/26 02:48:27;;;;;;;7.00;5.05;;;10.90;99.90;;;;;;5049624;28;20049;-60
2023/08/26 02:51:00;;;;;;;8.57;5.13;;;10.90;99.90;;;;;;5050974;28;20060;-60
2023/08/26 02:53:31;;;;;;;8.05;4.93;;;11.00;99.90;;;;;;5063874;28;20094;-59
2023/08/26 02:56:00;;;;;;;9.13;5.32;;;11.00;99.90;;;;;;5062307;28;20044;-59
2023/08/26 02:58:28;;;;;;;8.48;5.03;;;11.10;99.90;;;;;;5054218;28;20056;-59
2023/08/26 03:01:00;;;;;;;9.10;4.95;;;11.00;99.90;;;;;;5052717;28;20622;-59
2023/08/26 03:03:30;;;;;;;9.20;5.22;;;11.00;99.90;;;;;;5053011;28;20045;-60
2023/08/26 03:05:58;;;;;;;11.23;5.32;;;11.10;99.90;;;;;;5052967;28;20053;-59
2023/08/26 03:08:26;;;;;;;11.07;4.80;;;11.10;99.90;;;;;;5053653;28;20053;-59
2023/08/26 03:11:07;;;;;;;9.05;5.03;;;11.10;99.90;;;;;;5047920;28;20045;-59
2023/08/26 03:13:35;;;;;;;8.10;5.05;;;11.10;99.90;;;;;;5048062;28;20357;-59
2023/08/26 03:16:10;;;;;;;7.85;5.25;;;11.10;99.90;;;;;;5054109;28;20045;-59
2023/08/26 03:18:41;;;;;;;10.40;5.53;;;11.10;99.90;;;;;;5053828;28;20060;-59
2023/08/26 03:21:09;;;;;;;8.00;5.28;;;11.10;99.90;;;;;;5053902;28;20037;-60
2023/08/26 03:23:37;;;;;;;9.98;4.82;;;11.00;99.90;;;;;;5048154;28;20056;-59
2023/08/26 03:26:05;;;;;;;9.32;5.00;;;11.00;99.90;;;;;;5072635;28;20064;-59
2023/08/26 03:28:35;;;;;;;9.30;5.40;;;11.00;99.90;;;;;;5066437;28;20469;-59
2023/08/26 03:31:06;;;;;;;9.95;6.07;;;10.90;99.90;;;;;;5053773;28;20512;-59
2023/08/26 03:33:38;;;;;;;8.00;5.53;;;10.80;99.90;;;;;;5052292;28;20049;-60
2023/08/26 03:36:06;;;;;;;8.32;5.43;;;10.80;99.90;;;;;;5052534;28;20056;-59
2023/08/26 03:38:35;;;;;;;10.98;5.70;;;10.80;99.90;;;;;;5053694;28;20049;-59
2023/08/26 03:41:06;;;;;;;13.27;5.50;;;10.70;99.90;;;;;;5052229;28;20040;-59
2023/08/26 03:43:34;;;;;;;8.77;5.07;;;10.70;99.90;;;;;;5052224;28;20045;-57
2023/08/26 03:46:04;;;;;;;8.60;5.57;;;10.60;99.90;;;;;;5053375;28;20531;-57
2023/08/26 03:48:31;;;;;;;7.78;5.30;;;10.60;99.90;;;;;;5051859;28;20067;-57
2023/08/26 03:50:59;;;;;;;8.40;5.45;;;10.50;99.90;;;;;;5037877;28;20045;-57
2023/08/26 03:53:27;;;;;;;8.07;5.75;;;10.50;99.90;;;;;;5053479;28;20040;-57
2023/08/26 03:55:55;;;;;;;10.68;5.72;;;10.50;99.90;;;;;;5071743;28;20052;-57
2023/08/26 03:58:22;;;;;;;10.27;5.80;;;10.50;99.90;;;;;;5051334;28;20052;-57
2023/08/26 04:00:59;;;;;;;9.43;5.45;;;10.50;99.90;;;;;;5050066;28;20047;-57
2023/08/26 04:03:27;;;;;;;7.13;5.43;;;10.40;99.90;;;;;;5031257;28;20049;-57
2023/08/26 04:06:03;;;;;;;8.57;6.18;;;10.40;99.90;;;;;;5047263;28;20055;-57
2023/08/26 04:08:32;;;;;;;8.38;5.75;;;10.40;99.90;;;;;;5034939;28;20045;-57
2023/08/26 04:11:01;;;;;;;9.20;6.25;;;10.40;99.90;;;;;;5051836;28;20393;-57
2023/08/26 04:13:29;;;;;;;19.33;5.23;;;10.40;99.90;;;;;;5051788;28;20044;-57
2023/08/26 04:15:57;;;;;;;8.18;5.07;;;10.40;99.90;;;;;;5051660;28;20293;-57
2023/08/26 04:18:25;;;;;;;11.68;5.65;;;10.40;99.90;;;;;;5052660;28;20063;-57
2023/08/26 04:20:53;;;;;;;9.52;5.60;;;10.40;99.90;;;;;;5035050;28;20045;-57
2023/08/26 04:23:20;;;;;;;8.68;5.72;;;10.40;99.90;;;;;;5061356;28;20051;-57
2023/08/26 04:25:50;;;;;;;10.95;5.90;;;10.40;99.90;;;;;;5071236;28;20051;-57
2023/08/26 04:28:18;;;;;;;11.10;5.72;;;10.40;99.90;;;;;;5056385;28;20065;-57
2023/08/26 04:30:46;;;;;;;7.70;5.47;;;10.40;99.90;;;;;;5052575;28;20052;-57
2023/08/26 04:33:14;;;;;;;8.40;5.18;;;10.40;99.90;;;;;;5051169;28;20060;-57
2023/08/26 04:35:42;;;;;;;8.40;5.78;;;10.40;99.90;;;;;;5051385;28;20044;-57
2023/08/26 04:38:13;;;;;;;11.63;5.55;;;10.40;99.90;;;;;;5051209;28;20056;-57
2023/08/26 04:40:44;;;;;;;5.72;4.35;;;10.30;99.90;;;;;;5052458;28;20044;-57
2023/08/26 04:43:13;;;;;;;9.88;5.05;;;10.30;99.90;;;;;;5051046;28;20049;-57
2023/08/26 04:45:41;;;;;;;9.52;5.35;;;10.20;99.90;;;;;;5051152;28;20045;-57
2023/08/26 04:48:09;;;;;;;11.18;4.78;;;10.20;99.90;;;;;;5043655;28;20049;-57
2023/08/26 04:50:37;;;;;;;8.90;5.28;;;10.20;99.90;;;;;;5047825;28;20040;-58
2023/08/26 04:53:04;;;;;;;7.10;5.25;;;10.10;99.90;;;;;;5048118;28;20064;-59
2023/08/26 04:55:32;;;;;;;11.48;5.80;;;10.10;99.90;;;;;;5049165;28;20049;-58
2023/08/26 04:58:02;;;;;;;9.63;5.57;;;10.10;99.90;;;;;;5054907;28;20040;-58
2023/08/26 05:00:31;;;;;;;10.10;5.78;;;10.10;99.90;;;;;;5067317;28;20048;-59
2023/08/26 05:02:59;;;;;;;10.70;5.38;;;10.10;99.90;;;;;;5041688;28;20477;-59
2023/08/26 05:05:28;;;;;;;11.70;5.28;;;10.10;99.90;;;;;;5032575;28;20037;-61
2023/08/26 05:07:55;;;;;;;7.65;5.43;;;10.10;99.90;;;;;;5045868;28;20404;-57
2023/08/26 05:10:24;;;;;;;12.77;5.43;;;10.10;99.90;;;;;;5047340;28;20060;-58
2023/08/26 05:12:53;;;;;;;7.38;5.15;;;10.20;99.90;;;;;;5048308;28;20045;-57
2023/08/26 05:15:22;;;;;;;10.77;5.72;;;10.20;99.90;;;;;;5046436;28;20044;-58
2023/08/26 05:17:49;;;;;;;11.20;6.07;;;10.30;99.90;;;;;;5042161;28;20046;-58
2023/08/26 05:20:17;;;;;;;8.30;5.10;;;10.30;99.90;;;;;;5031328;28;20056;-58
2023/08/26 05:22:45;;;;;;;9.93;5.47;;;10.40;99.90;;;;;;5050008;28;20381;-58
2023/08/26 05:25:13;;;;;;;8.50;5.07;;;10.40;99.90;;;;;;5063967;28;20033;-58
2023/08/26 05:27:41;;;;;;;8.00;5.40;;;10.50;99.90;;;;;;5063085;28;20060;-58
2023/08/26 05:30:12;;;;;;;8.52;4.93;;;10.50;99.90;;;;;;5064170;28;20392;-58
2023/08/26 05:32:47;;;;;;;9.10;5.22;;;10.60;99.90;;;;;;5054709;28;20049;-58
2023/08/26 05:35:15;;;;;;;11.90;5.10;;;10.60;99.90;;;;;;5027264;28;20046;-58
2023/08/26 05:37:45;;;;;;;9.63;5.30;;;10.60;99.90;;;;;;5041511;28;20047;-58
2023/08/26 05:40:15;;;;;;;10.93;4.90;;;10.70;99.90;;;;;;5050872;28;20067;-58
2023/08/26 05:42:42;;;;;;;8.37;5.00;;;10.70;99.90;;;;;;5058422;28;20048;-59
2023/08/26 05:45:10;;;;;;;9.80;4.93;;;10.80;99.90;;;;;;5047295;28;20056;-59
2023/08/26 05:47:38;;;;;;;11.07;4.97;;;10.80;99.90;;;;;;5042762;28;20499;-59
2023/08/26 05:50:08;;;;;;;7.75;4.82;;;10.90;99.90;;;;;;5024740;28;20068;-59
2023/08/26 05:52:35;;;;;;;13.27;4.70;;;10.90;99.90;;;;;;5038892;28;20040;-59
2023/08/26 05:55:03;;;;;;;9.48;4.68;;;10.90;99.90;;;;;;5067038;28;20553;-59
2023/08/26 05:57:31;;;;;;;7.95;4.93;;;10.90;99.90;;;;;;5060720;28;20048;-59
2023/08/26 05:59:59;;;;;;;6.30;4.47;;;11.00;99.90;;;;;;5046600;28;20049;-58
2023/08/26 06:02:27;;;;;;;6.95;4.40;;;11.00;99.90;;;;;;5043190;28;20045;-59
2023/08/26 06:04:55;;;;;;;8.02;4.32;;;11.10;99.90;;;;;;5040983;28;20053;-59
2023/08/26 06:07:25;;;;;;;6.63;4.57;;;11.20;99.90;;;;;;5046190;28;20045;-59
2023/08/26 06:09:53;;;;;;;8.55;4.68;;;11.20;99.90;;;;;;5026174;28;20050;-59
2023/08/26 06:12:21;;;;;;;7.15;4.45;;;11.20;99.90;;;;;;5042531;28;20049;-59
2023/08/26 06:14:49;;;;;;;7.80;5.07;;;11.30;99.90;;;;;;5047886;28;20053;-59
2023/08/26 06:17:17;;;;;;;12.82;4.65;;;11.30;99.90;;;;;;5046740;28;20053;-59
2023/08/26 06:19:45;;;;;;;7.22;4.32;;;11.40;99.90;;;;;;5042430;28;20064;-59
2023/08/26 06:22:14;;;;;;;13.33;4.93;;;11.40;99.90;;;;;;5029522;28;20485;-59
2023/08/26 06:24:42;;;;;;;6.18;4.10;;;11.50;99.90;;;;;;5063183;28;20040;-59
2023/08/26 06:27:10;;;;;;;9.65;4.45;;;11.50;99.90;;;;;;5050938;28;20057;-59
2023/08/26 06:29:44;;;;;;;10.18;4.20;;;11.60;99.90;;;;;;5050547;28;20404;-59
2023/08/26 06:32:13;;;;;;;9.02;4.40;;;11.60;99.90;;;;;;5051262;28;20060;-59
2023/08/26 06:34:40;;;;;;;8.95;4.40;;;11.70;99.90;;;;;;5029649;28;20048;-58
2023/08/26 06:37:10;;;;;;;6.95;4.07;;;11.70;99.90;;;;;;5014426;28;20056;-58
2023/08/26 06:39:38;;;;;;;13.85;4.40;;;11.70;99.90;;;;;;5049810;28;20048;-58
2023/08/26 06:42:06;;;;;;;6.32;4.13;;;11.80;99.90;;;;;;5047980;28;20061;-59
2023/08/26 06:44:41;;;;;;;6.28;4.03;;;11.90;99.90;;;;;;5049833;28;20041;-58
2023/08/26 06:47:10;;;;;;;8.80;4.18;;;12.00;99.90;;;;;;5049928;28;20328;-58
2023/08/26 06:49:38;;;;;;;7.63;3.83;;;12.10;99.90;;;;;;5045179;28;20413;-58
2023/08/26 06:52:06;;;;;;;7.72;4.13;;;12.10;99.90;;;;;;5032511;28;20511;-58
2023/08/26 06:54:33;;;;;;;7.55;3.88;;;12.10;99.90;;;;;;5051254;28;20481;-59
2023/08/26 06:57:03;;;;;;;8.25;4.28;;;12.20;99.90;;;;;;5047892;28;20055;-59
2023/08/26 06:59:31;;;;;;;7.50;4.40;;;12.20;99.90;;;;;;5050169;28;20045;-59
2023/08/26 07:01:58;;;;;;;9.43;4.20;;;12.20;99.90;;;;;;5031564;28;20350;-59
2023/08/26 07:04:26;;;;;;;4.40;3.90;;;12.30;99.90;;;;;;5036903;28;20045;-59
2023/08/26 07:06:54;;;;;;;7.32;3.67;;;12.30;99.90;;;;;;5045785;28;20075;-59
2023/08/26 07:09:22;;;;;;;3.70;3.08;;;12.30;99.90;;;;;;5050599;28;20045;-59
2023/08/26 07:11:52;;;;;;;6.07;3.30;;;12.30;99.90;;;;;;5049468;28;20416;-59
2023/08/26 07:14:20;;;;;;;5.03;3.92;;;12.30;99.90;;;;;;5050600;28;20416;-59
2023/08/26 07:16:50;;;;;;;12.88;3.50;;;12.40;99.90;;;;;;5049584;28;20503;-59
2023/08/26 07:19:18;;;;;;;;;;;12.40;99.90;;;;;;5042589;28;20052;-59
2023/08/26 07:21:46;;;;;;;8.85;2.83;;;12.50;99.90;;;;;;5030696;28;19928;-59
2023/08/26 07:24:15;;;;;;;4.78;3.17;;;12.50;99.90;;;;;;5064953;28;20036;-59
2023/08/26 07:26:42;;;;;;;4.78;3.40;;;12.60;99.90;;;;;;5070682;28;20051;-59
2023/08/26 07:29:10;;;;;;;3.20;2.35;;;12.60;99.90;;;;;;5054116;28;20530;-59
2023/08/26 07:31:38;;;;;;;4.25;2.60;;;12.70;99.90;;;;;;5050769;28;20070;-59
2023/08/26 07:34:06;;;;;;;4.45;2.60;;;12.70;99.90;;;;;;5044462;28;20053;-59
2023/08/26 07:36:34;;;;;;;4.20;2.90;;;12.80;99.90;;;;;;5029271;28;20038;-60
2023/08/26 07:39:03;;;;;;;8.18;2.83;;;12.80;99.90;;;;;;5047483;28;20037;-59
2023/08/26 07:41:30;;;;;;;8.77;2.90;;;12.80;99.90;;;;;;5049994;28;20480;-61
2023/08/26 07:43:58;;;;;;;6.30;2.58;;;12.80;99.90;;;;;;5049357;28;20403;-59
2023/08/26 07:46:25;;;;;;;3.08;2.42;;;12.90;99.90;;;;;;5050350;28;20045;-59
2023/08/26 07:48:56;;;;;;;6.05;2.60;;;12.90;99.90;;;;;;5048877;28;20065;-59
2023/08/26 07:51:24;;;;;;;5.13;2.40;;;13.00;99.90;;;;;;5043241;28;20044;-59
2023/08/26 07:53:52;;;;;;;2.63;2.00;;;13.00;99.90;;;;;;5063859;28;20047;-58
2023/08/26 07:56:20;;;;;;;8.80;1.60;;;13.10;99.90;;;;;;5069886;28;20044;-59
2023/08/26 07:58:49;;;;;;;4.72;1.83;;;13.20;99.90;;;;;;5059812;28;20037;-59
2023/08/26 08:01:16;;;;;;;4.35;2.30;;;13.40;99.90;;;;;;5049487;28;20061;-59
2023/08/26 08:03:44;;;;;;;10.88;1.98;;;13.50;99.90;;;;;;5049201;28;20037;-59
2023/08/26 08:06:12;;;;;;;4.32;1.80;;;13.70;99.90;;;;;;5042901;28;20397;-60
2023/08/26 08:08:40;;;;;;;5.13;1.70;;;13.80;99.90;;;;;;5052784;28;20053;-59
2023/08/26 08:11:07;;;;;;;2.20;1.90;;;13.90;99.90;;;;;;5049515;28;20075;-59
2023/08/26 08:13:35;;;;;;;3.75;1.65;;;14.00;99.90;;;;;;5047585;28;20060;-59
2023/08/26 08:16:03;;;;;;;6.55;1.80;;;14.10;99.90;;;;;;5049348;28;20045;-59
2023/08/26 08:18:30;;;;;;;3.72;1.85;;;14.10;99.90;;;;;;5053064;28;20067;-59
2023/08/26 08:20:58;;;;;;;4.85;1.85;;;14.20;99.90;;;;;;5042087;28;20060;-59
2023/08/26 08:23:26;;;;;;;2.38;1.60;;;14.20;99.90;;;;;;5059800;28;20060;-59
2023/08/26 08:25:53;;;;;;;3.30;1.55;;;14.20;99.90;;;;;;5068064;28;20048;-59
2023/08/26 08:28:21;;;;;;;3.17;1.17;;;14.20;99.90;;;;;;5059091;28;20424;-59
2023/08/26 08:30:49;;;;;;;3.05;1.15;;;14.20;99.90;;;;;;5049602;28;20045;-60
2023/08/26 08:33:18;;;;;;;1.10;0.95;;;14.30;99.90;;;;;;5048616;28;20045;-64
2023/08/26 08:35:45;;;;;;;4.40;1.17;;;14.40;99.90;;;;;;5034192;28;20505;-60
2023/08/26 08:38:13;;;;;;;3.97;1.00;;;14.50;99.90;;;;;;5039972;28;20063;-59
2023/08/26 08:40:41;;;;;;;1.98;0.93;;;14.70;99.90;;;;;;5047779;28;20399;-59
2023/08/26 08:43:10;;;;;;;2.85;0.70;;;14.90;99.90;;;;;;5048425;28;20060;-59
2023/08/26 08:45:38;;;;;;;3.43;0.77;;;15.00;99.90;;;;;;5047870;28;20428;-59
2023/08/26 08:48:07;;;;;;;2.10;0.77;;;15.00;99.90;;;;;;5052471;28;20306;-59
2023/08/26 08:50:35;;;;;;;3.92;0.85;;;15.10;99.90;;;;;;5041970;28;20047;-59
2023/08/26 08:53:05;;;;;;;2.42;0.57;;;15.10;99.90;;;;;;5049787;28;20045;-59
2023/08/26 08:55:33;;;;;;;0.98;0.50;;;15.30;99.90;;;;;;5048793;28;20037;-59
2023/08/26 08:58:02;;;;;;;3.00;0.70;;;15.30;99.90;;;;;;5048479;28;20040;-59
2023/08/26 09:00:31;;;;;;;1.73;0.50;;;15.40;99.90;;;;;;5045589;28;20044;-59
2023/08/26 09:03:01;;;;;;;2.67;0.70;;;15.40;99.90;;;;;;5047272;28;20053;-60
2023/08/26 09:05:29;;;;;;;1.98;0.60;;;15.50;99.90;;;;;;5054387;28;20037;-59
2023/08/26 09:07:57;;;;;;;1.20;0.52;;;15.50;99.90;;;;;;5051550;28;20056;-59
2023/08/26 09:10:26;;;;;;;3.33;0.75;;;15.70;99.90;;;;;;5047312;28;20493;-60
2023/08/26 09:12:54;;;;;;;2.10;0.80;;;15.80;99.90;;;;;;5046666;28;20056;-59
2023/08/26 09:15:21;;;;;;;5.30;0.80;;;15.90;99.90;;;;;;5045269;28;20049;-59
2023/08/26 09:17:55;;;;;;;4.60;0.88;;;15.90;99.90;;;;;;5049109;28;20044;-59
2023/08/26 09:20:23;;;;;;;3.95;1.13;;;16.00;99.90;;;;;;5035985;28;20053;-59
2023/08/26 09:23:03;;;;;;;5.13;0.80;;;16.20;99.90;;;;;;5039144;28;20045;-59
2023/08/26 09:25:32;;;;;;;3.25;0.68;;;16.30;99.90;;;;;;5064906;28;20044;-59
2023/08/26 09:28:00;;;;;;;2.08;0.70;;;16.40;99.90;;;;;;5061505;28;20052;-59
2023/08/26 09:30:28;;;;;;;3.75;0.60;;;16.40;99.90;;;;;;5044666;28;20766;-59
2023/08/26 09:32:55;;;;;;;8.10;1.10;;;16.40;99.90;;;;;;5053283;28;20507;-60
2023/08/26 09:35:23;;;;;;;4.35;1.27;;;16.30;99.90;;;;;;5049495;28;20045;-59
2023/08/26 09:37:58;;;;;;;2.15;0.70;;;16.20;99.90;;;;;;5034453;28;20391;-59
2023/08/26 09:40:27;;;;;;;3.38;0.60;;;16.20;99.90;;;;;;5045164;28;20064;-59
2023/08/26 09:42:55;;;;;;;3.63;0.77;;;16.10;99.90;;;;;;5044429;28;20055;-59
2023/08/26 09:45:23;;;;;;;4.05;0.70;;;16.10;99.90;;;;;;5045035;28;20048;-58
2023/08/26 09:47:55;;;;;;;1.80;0.68;;;16.10;99.90;;;;;;5045679;28;20304;-59
2023/08/26 09:50:33;;;;;;;1.95;0.60;;;16.10;99.90;;;;;;5038005;28;20056;-59
2023/08/26 09:53:01;;;;;;;1.83;0.63;;;16.00;99.90;;;;;;5040017;28;20051;-60
2023/08/26 09:55:28;;;;;;;3.53;0.60;;;16.00;99.90;;;;;;5064589;28;20621;-61
2023/08/26 09:57:57;;;;;;;2.78;0.80;;;15.90;99.90;;;;;;5063841;28;20048;-59
2023/08/26 10:00:27;;;;;;;1.80;0.82;;;15.90;99.90;;;;;;5043664;28;20041;-58
2023/08/26 10:03:03;;;;;;;3.95;0.73;;;15.90;99.90;;;;;;5048052;28;20397;-59
2023/08/26 10:05:37;;;;;;;2.60;0.88;;;15.90;99.90;;;;;;5042696;28;20492;-59
2023/08/26 10:08:09;;;;;;;4.07;0.77;;;15.90;99.90;;;;;;5038481;28;20048;-58
2023/08/26 10:10:53;;;;;;;2.50;0.70;;;16.00;99.90;;;;;;5048417;28;20076;-59
2023/08/26 10:13:27;;;;;;;2.30;0.90;;;16.00;99.90;;;;;;5044684;28;20299;-59
2023/08/26 10:15:58;;;;;;;3.70;1.00;;;16.00;99.90;;;;;;5048250;28;20041;-59
2023/08/26 10:18:45;;;;;;;2.92;0.85;;;16.10;99.90;;;;;;5053085;28;20049;-59
2023/08/26 10:21:14;;;;;;;2.53;0.77;;;16.20;99.90;;;;;;5042455;28;20050;-60
2023/08/26 10:23:43;;;;;;;2.90;0.60;;;16.30;99.90;;;;;;5054342;28;20048;-60
2023/08/26 10:26:11;;;;;;;2.08;0.60;;;16.40;99.90;;;;;;5064119;28;20044;-59
2023/08/26 10:28:40;;;;;;;2.28;0.45;;;16.60;99.90;;;;;;5051163;28;20515;-59
2023/08/26 10:31:08;;;;;;;0.57;0.50;;;16.70;99.90;;;;;;5048178;28;20587;-58
2023/08/26 10:33:59;;;;;;;2.13;0.82;;;16.70;99.90;;;;;;5047643;28;20060;-58
2023/08/26 10:36:27;;;;;;;2.30;0.30;;;16.60;99.90;;;;;;5047177;28;20049;-59
2023/08/26 10:38:57;;;;;;;1.33;0.40;;;16.50;99.90;;;;;;5051567;28;20049;-57
2023/08/26 10:41:26;;;;;;;3.63;0.68;;;16.30;99.90;;;;;;5046977;28;20060;-57
2023/08/26 10:44:01;;;;;;;0.65;0.40;;;16.00;99.90;;;;;;5047586;28;20052;-58
2023/08/26 10:46:52;;;;;;;0.50;0.38;;;15.70;99.90;;;;;;5048246;28;20041;-57
2023/08/26 10:49:28;;;;;;;3.92;0.50;;;15.40;99.90;;;;;;5051693;28;20068;-58
2023/08/26 10:52:19;;;;;;;2.08;0.50;;;15.20;99.90;;;;;;5032826;28;20038;-58
2023/08/26 10:54:47;;;;;;;1.25;0.45;;;15.00;99.90;;;;;;5047012;28;20052;-58
2023/08/26 10:57:15;;;;;;;1.27;0.55;;;14.80;99.90;;;;;;5047983;28;20396;-58
2023/08/26 10:59:44;;;;;;;3.85;0.50;;;14.70;99.90;;;;;;5051368;28;20041;-58
2023/08/26 11:02:12;;;;;;;0.55;0.50;;;14.50;99.90;;;;;;5046150;28;20390;-58
2023/08/26 11:04:45;;;;;;;2.53;0.43;;;14.50;99.90;;;;;;5065909;28;20049;-58
2023/08/26 11:07:19;;;;;;;1.52;0.73;;;14.40;99.90;;;;;;5032007;28;20046;-58
2023/08/26 11:09:47;;;;;;;1.05;0.45;;;14.40;99.90;;;;;;5041272;28;20867;-58
2023/08/26 11:12:25;;;;;;;4.35;0.60;;;14.40;99.90;;;;;;5046070;28;20060;-58
2023/08/26 11:15:03;;;;;;;2.38;0.40;;;14.30;99.90;;;;;;5047428;28;20389;-58
2023/08/26 11:17:31;;;;;;;1.85;0.60;;;14.30;99.90;;;;;;5047508;28;20045;-58
2023/08/26 11:20:17;;;;;;;2.65;0.57;;;14.40;99.90;;;;;;5046843;28;20484;-59
2023/08/26 11:22:46;;;;;;;0.40;0.40;;;14.50;99.90;;;;;;5039265;28;20068;-59
2023/08/26 11:25:15;;;;;;;1.90;0.40;;;14.60;99.90;;;;;;5067246;28;20044;-58
2023/08/26 11:27:43;;;;;;;0.77;0.40;;;14.70;99.90;;;;;;5066941;28;20243;-58
2023/08/26 11:30:11;;;;;;;1.55;0.50;;;14.80;99.90;;;;;;5048887;28;20407;-58
2023/08/26 11:32:41;;;;;;;0.50;0.40;;;15.00;99.90;;;;;;5029654;28;20048;-58
2023/08/26 11:35:12;;;;;;;1.07;0.50;;;15.20;99.90;;;;;;5049048;28;20048;-58
2023/08/26 11:37:41;;;;;;;0.90;0.50;;;15.50;99.90;;;;;;5035582;28;20058;-62
2023/08/26 11:40:10;;;;;;;1.40;0.43;;;15.60;99.90;;;;;;5048850;28;20048;-58
2023/08/26 11:42:38;;;;;;;1.90;0.50;;;15.70;99.90;;;;;;5048678;28;20409;-59
2023/08/26 11:45:10;;;;;;;1.27;0.60;;;15.80;99.90;;;;;;5050171;28;20064;-59
2023/08/26 11:47:40;;;;;;;2.75;0.80;;;15.90;99.90;;;;;;5052367;28;20535;-59
2023/08/26 11:50:09;;;;;;;3.03;0.80;;;16.00;99.90;;;;;;5052720;28;20049;-59
2023/08/26 11:52:38;;;;;;;1.73;1.10;;;16.20;99.90;;;;;;5049838;28;20044;-60
2023/08/26 11:55:08;;;;;;;3.03;0.90;;;16.30;99.90;;;;;;5047415;28;20053;-59
2023/08/26 11:57:38;;;;;;;1.65;1.20;;;16.30;99.90;;;;;;5049619;28;20045;-60
2023/08/26 12:00:10;;;;;;;2.75;1.60;;;16.40;99.90;;;;;;5049628;28;20056;-59
2023/08/26 12:02:48;;;;;;;3.45;2.10;;;16.50;99.90;;;;;;5049534;28;20045;-59
2023/08/26 12:05:17;;;;;;;5.45;1.77;;;16.50;99.90;;;;;;5049587;28;20044;-59
2023/08/26 12:07:45;;;;;;;3.45;1.85;;;16.60;99.90;;;;;;5039882;28;20052;-59
2023/08/26 12:10:14;;;;;;;1.45;1.35;;;16.80;99.90;;;;;;5062087;28;20076;-59
2023/08/26 12:12:42;;;;;;;1.63;1.40;;;17.10;99.90;;;;;;5046575;28;20049;-59
2023/08/26 12:15:13;;;;;;;4.15;1.40;;;17.50;99.90;;;;;;5027496;28;20045;-60
2023/08/26 12:17:45;;;;;;;2.55;1.50;;;17.90;99.90;;;;;;5028818;28;20048;-59
2023/08/26 12:20:28;;;;;;;3.38;1.60;;;18.20;99.90;;;;;;5046170;28;20052;-59
2023/08/26 12:22:59;;;;;;;4.28;2.20;;;18.50;99.90;;;;;;5045236;28;20049;-59
2023/08/26 12:25:31;;;;;;;2.35;1.85;;;18.80;99.90;;;;;;5064121;28;20049;-59
2023/08/26 12:28:23;;;;;;;3.10;2.00;;;18.90;99.90;;;;;;5060754;28;20045;-59
2023/08/26 12:30:51;;;;;;;2.30;2.00;;;18.80;99.90;;;;;;5045936;28;20053;-60
2023/08/26 12:33:19;;;;;;;1.90;1.70;;;18.60;99.90;;;;;;5045432;28;20469;-59
2023/08/26 12:35:54;;;;;;;3.40;1.75;;;18.30;99.90;;;;;;5045225;28;20405;-59
2023/08/26 12:38:23;;;;;;;2.38;1.83;;;17.90;99.90;;;;;;5052740;28;20071;-59
2023/08/26 12:40:51;;;;;;;2.63;2.03;;;17.50;99.90;;;;;;5066077;28;20045;-59
2023/08/26 12:43:19;;;;;;;1.20;1.15;;;17.10;99.90;;;;;;5054539;28;20453;-59
2023/08/26 12:45:48;;;;;;;1.95;1.48;;;16.80;99.90;;;;;;5045658;28;20045;-59
2023/08/26 12:48:17;;;;;;;;;;;16.50;99.90;;;;;;5053321;28;20071;-59
2023/08/26 12:51:08;;;;;;;1.63;1.35;;;16.20;99.90;;;;;;5065771;28;20417;-59
2023/08/26 12:53:39;;;;;;;3.13;1.70;;;16.00;99.90;;;;;;5051238;28;20492;-59
2023/08/26 12:56:07;;;;;;;1.57;1.37;;;15.90;99.90;;;;;;5064156;28;20063;-59
2023/08/26 12:58:35;;;;;;;4.53;2.00;;;16.00;99.90;;;;;;5055184;28;20049;-59